createdAt,value
2022-07-26T00:00:18.881Z,17.30
2022-07-26T00:04:01.032Z,17.20
2022-07-26T00:07:43.019Z,17.20
2022-07-26T00:11:25.801Z,17.20
2022-07-26T00:15:10.921Z,17.10
2022-07-26T00:18:52.845Z,17.10
2022-07-26T00:22:34.908Z,17.00
2022-07-26T00:26:16.936Z,17.00
2022-07-26T00:29:58.832Z,17.00
2022-07-26T00:33:40.852Z,17.00
2022-07-26T00:37:22.753Z,16.90
2022-07-26T00:41:05.769Z,16.90
2022-07-26T00:44:47.787Z,16.90
2022-07-26T00:48:29.776Z,16.90
2022-07-26T00:52:12.832Z,16.90
2022-07-26T00:55:54.687Z,16.90
2022-07-26T00:59:36.688Z,17.00
2022-07-26T01:03:18.584Z,17.10
2022-07-26T01:07:01.000Z,17.10
2022-07-26T01:10:43.838Z,17.20
2022-07-26T01:14:26.135Z,17.20
2022-07-26T01:18:08.018Z,17.20
2022-07-26T01:21:51.607Z,17.30
2022-07-26T01:25:43.450Z,17.30
2022-07-26T01:29:35.367Z,17.30
2022-07-26T01:33:18.444Z,17.30
2022-07-26T01:37:00.551Z,17.30
2022-07-26T01:40:42.409Z,17.40
2022-07-26T01:44:24.473Z,17.40
2022-07-26T01:48:06.536Z,17.40
2022-07-26T01:51:48.423Z,17.40
2022-07-26T01:55:30.284Z,17.40
2022-07-26T01:59:12.161Z,17.40
2022-07-26T02:02:54.079Z,17.50
2022-07-26T02:06:36.019Z,17.50
2022-07-26T02:10:19.847Z,17.50
2022-07-26T02:14:03.691Z,17.50
2022-07-26T02:17:45.639Z,17.50
2022-07-26T02:21:27.464Z,17.50
2022-07-26T02:25:09.622Z,17.50
2022-07-26T02:28:54.206Z,17.50
2022-07-26T02:32:36.039Z,17.40
2022-07-26T02:36:17.864Z,17.40
2022-07-26T02:40:00.165Z,17.40
2022-07-26T02:43:42.037Z,17.40
2022-07-26T02:47:23.912Z,17.40
2022-07-26T02:51:05.866Z,17.40
2022-07-26T02:54:47.684Z,17.40
2022-07-26T02:58:29.538Z,17.40
2022-07-26T03:02:11.408Z,17.40
2022-07-26T03:05:53.319Z,17.40
2022-07-26T03:09:35.203Z,17.40
2022-07-26T03:13:17.025Z,17.40
2022-07-26T03:16:58.821Z,17.40
2022-07-26T03:20:40.690Z,17.40
2022-07-26T03:24:22.531Z,17.40
2022-07-26T03:28:04.853Z,17.40
2022-07-26T03:31:46.823Z,17.30
2022-07-26T03:35:28.610Z,17.30
2022-07-26T03:39:10.815Z,17.30
2022-07-26T03:42:52.735Z,17.20
2022-07-26T03:46:34.591Z,17.20
2022-07-26T03:50:16.530Z,17.10
2022-07-26T03:53:58.331Z,17.00
2022-07-26T03:57:40.112Z,17.00
2022-07-26T04:01:22.334Z,16.90
2022-07-26T04:05:04.482Z,16.90
2022-07-26T04:08:46.808Z,16.80
2022-07-26T04:12:28.609Z,16.70
2022-07-26T04:16:10.419Z,16.70
2022-07-26T04:19:52.208Z,16.60
2022-07-26T04:23:34.170Z,16.60
2022-07-26T04:27:15.965Z,16.50
2022-07-26T04:30:59.125Z,16.50
2022-07-26T04:34:40.948Z,16.40
2022-07-26T04:38:23.005Z,16.40
2022-07-26T04:42:04.861Z,16.40
2022-07-26T04:45:47.093Z,16.50
2022-07-26T04:49:28.961Z,16.50
2022-07-26T04:53:13.450Z,16.50
2022-07-26T04:56:55.310Z,16.50
2022-07-26T05:00:56.842Z,16.50
2022-07-26T05:04:39.269Z,16.60
2022-07-26T05:08:21.152Z,16.60
2022-07-26T05:12:03.273Z,16.60
2022-07-26T05:15:45.076Z,16.60
2022-07-26T05:19:26.938Z,16.60
2022-07-26T05:23:09.021Z,16.70
2022-07-26T05:26:53.194Z,16.70
2022-07-26T05:30:38.812Z,16.70
2022-07-26T05:34:20.744Z,16.70
2022-07-26T05:38:02.569Z,16.80
2022-07-26T05:41:44.453Z,16.80
2022-07-26T05:45:26.347Z,16.80
2022-07-26T05:49:08.252Z,16.90
2022-07-26T05:52:50.221Z,16.90
2022-07-26T05:56:32.046Z,17.00
2022-07-26T06:00:14.776Z,17.00
2022-07-26T06:03:56.657Z,17.00
2022-07-26T06:07:52.742Z,17.00
2022-07-26T06:11:35.219Z,17.10
2022-07-26T06:15:17.087Z,17.10
2022-07-26T06:18:59.080Z,17.10
2022-07-26T06:22:40.980Z,17.10
2022-07-26T06:26:23.960Z,17.20
2022-07-26T06:30:07.996Z,17.20
2022-07-26T06:33:51.420Z,17.20
2022-07-26T06:37:36.954Z,17.20
2022-07-26T06:41:19.226Z,17.20
2022-07-26T06:45:01.214Z,17.30
2022-07-26T06:48:47.255Z,17.30
2022-07-26T06:52:29.756Z,17.40
2022-07-26T06:56:13.385Z,17.40
2022-07-26T06:59:55.185Z,17.50
2022-07-26T07:03:37.208Z,17.60
2022-07-26T07:07:19.063Z,17.60
2022-07-26T07:11:00.908Z,17.70
2022-07-26T07:14:43.959Z,17.80
2022-07-26T07:18:25.890Z,17.90
2022-07-26T07:22:11.717Z,18.00
2022-07-26T07:25:54.030Z,18.10
2022-07-26T07:29:35.874Z,18.20
2022-07-26T07:33:22.799Z,18.30
2022-07-26T07:37:05.039Z,18.40
2022-07-26T07:40:51.788Z,18.50
2022-07-26T07:44:33.623Z,18.70
2022-07-26T07:48:15.490Z,18.90
2022-07-26T07:51:57.494Z,19.20
2022-07-26T07:55:41.297Z,19.50
2022-07-26T07:59:26.048Z,19.80
2022-07-26T08:03:09.408Z,20.10
2022-07-26T08:06:51.603Z,20.40
2022-07-26T08:10:33.828Z,20.50
2022-07-26T08:14:15.681Z,20.60
2022-07-26T08:17:59.749Z,20.50
2022-07-26T08:21:42.913Z,20.60
2022-07-26T08:25:24.972Z,20.60
2022-07-26T08:29:07.009Z,20.70
2022-07-26T08:32:48.833Z,20.80
2022-07-26T08:36:32.618Z,20.80
2022-07-26T08:40:15.088Z,20.80
2022-07-26T08:44:05.764Z,20.80
2022-07-26T08:48:15.069Z,20.80
2022-07-26T08:51:49.732Z,20.90
2022-07-26T08:55:44.678Z,20.80
2022-07-26T08:59:33.393Z,20.70
2022-07-26T09:03:25.811Z,20.70
2022-07-26T09:07:09.312Z,20.70
2022-07-26T09:10:51.251Z,20.80
2022-07-26T09:14:37.689Z,20.90
2022-07-26T09:18:26.976Z,21.00
2022-07-26T09:22:13.671Z,21.20
2022-07-26T09:26:04.463Z,21.20
2022-07-26T09:29:52.149Z,21.30
2022-07-26T09:33:48.914Z,21.60
2022-07-26T09:37:34.960Z,21.70
2022-07-26T09:41:29.298Z,21.80
2022-07-26T09:45:17.776Z,21.80
2022-07-26T09:49:20.246Z,21.70
2022-07-26T09:53:08.935Z,21.60
2022-07-26T09:56:52.929Z,21.50
2022-07-26T10:00:34.993Z,21.40
2022-07-26T10:04:18.207Z,21.30
2022-07-26T10:08:00.821Z,21.10
2022-07-26T10:11:58.350Z,21.20
2022-07-26T10:15:48.631Z,21.50
2022-07-26T10:19:45.641Z,22.00
2022-07-26T10:23:34.327Z,22.30
2022-07-26T10:27:37.993Z,22.60
2022-07-26T10:31:25.995Z,22.80
2022-07-26T10:35:45.065Z,22.80
2022-07-26T10:39:27.217Z,23.00
2022-07-26T10:43:38.826Z,23.30
2022-07-26T10:47:21.167Z,24.10
2022-07-26T10:51:27.395Z,25.20
2022-07-26T10:55:09.710Z,25.70
2022-07-26T10:58:51.725Z,26.10
2022-07-26T11:02:34.086Z,26.40
2022-07-26T11:06:18.967Z,26.50
2022-07-26T11:10:02.410Z,26.90
2022-07-26T11:13:44.258Z,27.00
2022-07-26T11:17:27.793Z,27.00
2022-07-26T11:21:14.598Z,27.30
2022-07-26T11:24:56.705Z,27.60
2022-07-26T11:28:59.260Z,27.90
2022-07-26T11:32:53.268Z,27.90
2022-07-26T11:36:43.696Z,27.70
2022-07-26T11:40:45.237Z,27.40
2022-07-26T11:44:28.109Z,26.90
2022-07-26T11:48:10.118Z,26.40
2022-07-26T11:51:55.874Z,26.00
2022-07-26T11:55:38.098Z,25.70
2022-07-26T11:59:20.205Z,25.40
2022-07-26T12:03:02.117Z,25.20
2022-07-26T12:06:45.796Z,25.10
2022-07-26T12:10:28.357Z,25.00
2022-07-26T12:14:13.738Z,24.90
2022-07-26T12:18:00.371Z,24.90
2022-07-26T12:21:45.015Z,24.90
2022-07-26T12:25:28.501Z,24.80
2022-07-26T12:29:25.618Z,24.60
2022-07-26T12:33:07.443Z,24.40
2022-07-26T12:36:49.320Z,24.30
2022-07-26T12:40:41.622Z,24.10
2022-07-26T12:44:23.573Z,23.90
2022-07-26T12:48:12.636Z,23.80
2022-07-26T12:51:54.494Z,23.70
2022-07-26T12:55:37.625Z,23.70
2022-07-26T12:59:19.855Z,23.70
2022-07-26T13:03:01.699Z,23.60
2022-07-26T13:06:43.506Z,23.70
2022-07-26T13:10:34.748Z,23.80
2022-07-26T13:14:17.331Z,23.80
2022-07-26T13:17:59.754Z,23.90
2022-07-26T13:21:41.716Z,24.00
2022-07-26T13:25:23.553Z,23.90
2022-07-26T13:29:06.856Z,24.00
2022-07-26T13:32:48.739Z,24.00
2022-07-26T13:36:30.625Z,24.10
2022-07-26T13:40:12.620Z,24.10
2022-07-26T13:43:55.752Z,24.20
2022-07-26T13:47:37.647Z,24.20
2022-07-26T13:51:19.543Z,24.30
2022-07-26T13:55:01.398Z,24.30
2022-07-26T13:58:43.430Z,24.40
2022-07-26T14:02:25.703Z,24.70
2022-07-26T14:06:07.608Z,24.90
2022-07-26T14:09:49.532Z,25.10
2022-07-26T14:13:31.482Z,25.20
2022-07-26T14:17:13.553Z,25.30
2022-07-26T14:20:55.356Z,25.40
2022-07-26T14:24:37.204Z,25.50
2022-07-26T14:28:19.044Z,25.50
2022-07-26T14:32:02.026Z,25.60
2022-07-26T14:35:46.871Z,25.70
2022-07-26T14:39:28.715Z,25.70
2022-07-26T14:43:10.540Z,25.70
2022-07-26T14:46:53.503Z,25.70
2022-07-26T14:51:09.440Z,25.60
2022-07-26T14:54:51.706Z,25.70
2022-07-26T14:58:33.779Z,25.60
2022-07-26T15:02:15.874Z,25.60
2022-07-26T15:05:58.091Z,25.40
2022-07-26T15:09:39.999Z,25.30
2022-07-26T15:13:21.975Z,25.10
2022-07-26T15:17:03.893Z,25.00
2022-07-26T15:20:45.737Z,24.90
2022-07-26T15:24:29.101Z,24.90
2022-07-26T15:28:11.044Z,24.90
2022-07-26T15:31:53.877Z,24.90
2022-07-26T15:35:37.141Z,24.80
2022-07-26T15:39:19.157Z,24.80
2022-07-26T15:43:01.102Z,24.70
2022-07-26T15:46:45.764Z,24.60
2022-07-26T15:50:29.819Z,24.50
2022-07-26T15:54:14.346Z,24.30
2022-07-26T15:57:57.140Z,24.20
2022-07-26T16:01:39.266Z,24.10
2022-07-26T16:05:21.240Z,24.10
2022-07-26T16:09:16.742Z,24.10
2022-07-26T16:13:01.444Z,24.20
2022-07-26T16:16:43.653Z,24.20
2022-07-26T16:20:25.550Z,24.20
2022-07-26T16:24:08.796Z,24.10
2022-07-26T16:27:53.040Z,24.00
2022-07-26T16:31:36.053Z,23.90
2022-07-26T16:35:17.979Z,23.80
2022-07-26T16:39:00.097Z,23.80
2022-07-26T16:42:41.953Z,23.80
2022-07-26T16:46:24.390Z,23.90
2022-07-26T16:50:06.885Z,24.00
2022-07-26T16:53:51.417Z,24.20
2022-07-26T16:57:33.269Z,24.30
2022-07-26T17:01:15.970Z,24.40
2022-07-26T17:04:58.762Z,24.50
2022-07-26T17:08:41.712Z,24.50
2022-07-26T17:12:24.040Z,24.40
2022-07-26T17:16:05.899Z,24.30
2022-07-26T17:19:47.836Z,24.20
2022-07-26T17:23:29.753Z,24.10
2022-07-26T17:27:11.581Z,24.00
2022-07-26T17:30:53.412Z,24.00
2022-07-26T17:34:35.347Z,23.90
2022-07-26T17:38:17.319Z,23.90
2022-07-26T17:41:59.286Z,23.90
2022-07-26T17:45:41.661Z,23.90
2022-07-26T17:49:25.217Z,23.90
2022-07-26T17:53:07.127Z,23.90
2022-07-26T17:56:49.088Z,24.00
2022-07-26T18:00:30.984Z,24.00
2022-07-26T18:04:14.066Z,24.00
2022-07-26T18:07:55.908Z,23.90
2022-07-26T18:11:39.172Z,23.80
2022-07-26T18:15:22.639Z,23.70
2022-07-26T18:19:05.165Z,23.50
2022-07-26T18:22:50.212Z,23.40
2022-07-26T18:26:32.464Z,23.20
2022-07-26T18:30:14.351Z,23.10
2022-07-26T18:33:56.151Z,23.10
2022-07-26T18:37:38.040Z,22.90
2022-07-26T18:41:20.200Z,22.90
2022-07-26T18:45:02.393Z,22.80
2022-07-26T18:48:44.346Z,22.70
2022-07-26T18:52:28.650Z,22.70
2022-07-26T18:56:13.666Z,22.60
2022-07-26T18:59:55.499Z,22.60
2022-07-26T19:03:37.590Z,22.50
2022-07-26T19:07:19.567Z,22.40
2022-07-26T19:11:01.345Z,22.30
2022-07-26T19:14:43.229Z,22.30
2022-07-26T19:18:25.093Z,22.10
2022-07-26T19:22:06.952Z,22.00
2022-07-26T19:25:48.987Z,21.90
2022-07-26T19:29:30.832Z,21.90
2022-07-26T19:33:12.721Z,21.80
2022-07-26T19:36:54.605Z,21.70
2022-07-26T19:40:36.456Z,21.70
2022-07-26T19:44:18.388Z,21.60
2022-07-26T19:48:00.271Z,21.50
2022-07-26T19:51:42.356Z,21.50
2022-07-26T19:55:24.214Z,21.40
2022-07-26T19:59:06.054Z,21.20
2022-07-26T20:02:48.193Z,21.10
2022-07-26T20:06:30.168Z,21.00
2022-07-26T20:10:12.008Z,20.90
2022-07-26T20:13:55.284Z,20.80
2022-07-26T20:17:39.662Z,20.60
2022-07-26T20:21:22.244Z,20.50
2022-07-26T20:25:06.096Z,20.40
2022-07-26T20:28:49.074Z,20.30
2022-07-26T20:32:32.163Z,20.10
2022-07-26T20:36:14.149Z,20.00
2022-07-26T20:39:55.951Z,19.90
2022-07-26T20:43:38.616Z,19.80
2022-07-26T20:47:21.881Z,19.70
2022-07-26T20:51:13.601Z,19.50
2022-07-26T20:54:55.765Z,19.30
2022-07-26T20:58:37.790Z,19.20
2022-07-26T21:02:19.923Z,19.10
2022-07-26T21:06:01.793Z,19.00
2022-07-26T21:09:43.684Z,18.90
2022-07-26T21:13:25.661Z,18.70
2022-07-26T21:17:11.673Z,18.70
2022-07-26T21:20:54.057Z,18.60
2022-07-26T21:24:36.061Z,18.40
2022-07-26T21:28:17.991Z,18.40
2022-07-26T21:31:59.945Z,18.30
2022-07-26T21:35:42.683Z,18.20
2022-07-26T21:39:24.489Z,18.10
2022-07-26T21:43:06.344Z,18.00
2022-07-26T21:46:52.846Z,17.90
2022-07-26T21:50:36.275Z,17.80
2022-07-26T21:54:18.109Z,17.70
2022-07-26T21:57:59.964Z,17.60
2022-07-26T22:01:42.134Z,17.50
2022-07-26T22:05:38.143Z,17.40
2022-07-26T22:09:20.028Z,17.40
2022-07-26T22:13:06.142Z,17.30
2022-07-26T22:16:49.237Z,17.20
2022-07-26T22:20:32.942Z,17.20
2022-07-26T22:24:14.774Z,17.10
2022-07-26T22:27:57.522Z,17.00
2022-07-26T22:31:39.444Z,16.90
2022-07-26T22:35:21.370Z,16.90
2022-07-26T22:39:03.333Z,16.80
2022-07-26T22:42:46.477Z,16.80
2022-07-26T22:46:29.593Z,16.70
2022-07-26T22:50:11.952Z,16.70
2022-07-26T22:53:53.852Z,16.60
2022-07-26T22:57:36.120Z,16.50
2022-07-26T23:01:18.068Z,16.40
2022-07-26T23:04:59.998Z,16.40
2022-07-26T23:08:47.539Z,16.30
2022-07-26T23:12:29.820Z,16.30
2022-07-26T23:16:11.678Z,16.20
2022-07-26T23:19:53.885Z,16.20
2022-07-26T23:23:35.787Z,16.10
2022-07-26T23:27:20.201Z,16.00
2022-07-26T23:31:02.266Z,15.90
2022-07-26T23:34:44.230Z,15.80
2022-07-26T23:38:26.237Z,15.70
2022-07-26T23:42:08.176Z,15.70
2022-07-26T23:45:50.026Z,15.60
2022-07-26T23:49:31.911Z,15.60
2022-07-26T23:53:13.772Z,15.50
2022-07-26T23:56:55.669Z,15.40
